Koosah.INFO

KSEA Weather Observatons

This table shows observations taken by aircraft in the Seattle, WA, US area since 2018-11-15T21:45:21-0800. By default, it is sorted by time observed in ascending order. Click on a column heading to sort by that column instead. Click again on the same column heading to sort in descending order.

Show observations taken in the last:

Return to main page.

Time Observed Time Received Altitude (ft) Latitude Longitude Temperature (˚C) Wind Direction Wind speed (kn) Frequency (MHz) Source
2018-11-15T21:58:00-0800 2018-11-15T22:08:05-0800 33980 45.8859 -122.6342 -56.0 286 36 130.025 .N317AS
2018-11-15T21:59:00-0800 2018-11-15T22:08:05-0800 32935 45.9798 -122.7174 -53.2 293 34 130.025 .N317AS
2018-11-15T22:00:00-0800 2018-11-15T22:08:05-0800 31189 46.0746 -122.8024 -49.0 (missing) (missing) 130.025 .N317AS
2018-11-15T22:02:00-0800 2018-11-15T22:05:23-0800 9946 47.2698 -122.468 -2.7 319 32 130.025 .N520AS
2018-11-15T22:03:00-0800 2018-11-15T22:05:23-0800 8620 47.3296 -122.4587 -1.0 316 31 130.025 .N520AS
2018-11-15T22:04:00-0800 2018-11-15T22:05:23-0800 7543 47.3886 -122.4553 0.5 303 20 130.025 .N520AS
2018-11-15T22:07:00-0800 2018-11-15T22:13:53-0800 5744 47.5587 -122.4556 4.2 296 16 130.025 .N520AS
2018-11-15T22:08:00-0800 2018-11-15T22:13:53-0800 5742 47.6116 -122.4555 4.0 299 20 130.025 .N520AS
2018-11-15T22:09:00-0800 2018-11-15T22:13:53-0800 5740 47.665 -122.4553 3.7 299 23 130.025 .N520AS
2018-11-15T22:11:00-0800 2018-11-15T22:17:44-0800 13026 47.225 -121.8449 -6.0 297 43 130.025 .N303AS
2018-11-15T22:12:00-0800 2018-11-15T22:17:44-0800 12338 47.2576 -121.9164 -5.2 302 44 130.025 .N303AS
2018-11-15T22:13:00-0800 2018-11-15T22:17:44-0800 11020 47.2867 -121.9805 -5.2 318 38 130.025 .N303AS
2018-11-15T22:15:00-0800 2018-11-15T22:21:44-0800 13454 47.0242 -122.5245 -7.2 299 43 130.025 .N323AS
2018-11-15T22:16:00-0800 2018-11-15T22:21:44-0800 12189 47.1001 -122.4968 -5.7 306 39 130.025 .N323AS
2018-11-15T22:17:00-0800 2018-11-15T22:21:44-0800 10852 47.1758 -122.4829 -4.2 321 33 130.025 .N323AS
2018-11-15T22:19:00-0800 2018-11-15T22:21:50-0800 9177 47.3162 -122.4608 -1.2 326 30 130.025 .N323AS
2018-11-15T22:20:00-0800 2018-11-15T22:26:46-0800 6101 47.5804 -122.1755 3.0 301 33 130.025 .N303AS
2018-11-15T22:20:00-0800 2018-11-15T22:21:50-0800 8103 47.3775 -122.4553 0.5 319 26 130.025 .N323AS
2018-11-15T22:21:00-0800 2018-11-15T22:26:46-0800 5112 47.6325 -122.1798 4.5 296 24 130.025 .N303AS
2018-11-15T22:21:00-0800 2018-11-15T22:21:50-0800 6868 47.4387 -122.4555 2.7 307 16 130.025 .N323AS
2018-11-15T22:22:00-0800 2018-11-15T22:26:46-0800 4752 47.6858 -122.1859 5.0 296 21 130.025 .N303AS
2018-11-15T22:28:00-0800 2018-11-15T22:30:54-0800 5093 47.7749 -122.3504 5.2 287 34 130.025 .N323AS
2018-11-15T22:29:00-0800 2018-11-15T22:30:54-0800 4732 47.7247 -122.3157 5.5 304 27 130.025 .N323AS
2018-11-15T22:30:00-0800 2018-11-15T22:30:54-0800 4183 47.6705 -122.3161 6.7 293 14 130.025 .N323AS
2018-11-15T22:34:00-0800 2018-11-15T22:47:08-0800 11100 47.498 -121.468 -5.0 310 47 130.025 .N585NW
2018-11-15T22:36:00-0800 2018-11-15T22:47:08-0800 9600 47.455 -121.526 -3.0 310 42 130.025 .N585NW
2018-11-15T22:37:00-0800 2018-11-15T22:47:08-0800 8100 47.417 -121.577 0.0 307 43 130.025 .N585NW
2018-11-15T22:41:00-0800 2018-11-15T22:47:08-0800 6600 47.431 -122.092 2.0 303 45 130.025 .N585NW
2018-11-15T22:43:00-0800 2018-11-15T22:47:08-0800 5100 47.461 -122.135 4.0 302 42 130.025 .N585NW
2018-11-15T22:46:00-0800 2018-11-15T22:47:08-0800 3600 47.384 -122.191 8.0 303 18 130.025 .N585NW
2018-11-15T22:58:00-0800 2018-11-15T22:59:07-0800 11350 47.01 -122.104 -5.0 309 38 130.025 .N912AN
2018-11-15T22:58:00-0800 2018-11-15T22:59:07-0800 12030 46.588 -122.094 -6.0 305 41 130.025 .N912AN
2018-11-15T22:58:00-0800 2018-11-15T22:59:07-0800 12660 46.566 -122.084 -6.0 304 46 130.025 .N912AN
2018-11-15T22:58:00-0800 2018-11-15T22:59:07-0800 13420 46.543 -122.074 -7.0 302 46 130.025 .N912AN
2018-11-15T22:58:00-0800 2018-11-15T22:59:07-0800 14220 46.521 -122.064 -9.0 305 45 130.025 .N912AN
2018-11-15T23:12:00-0800 2018-11-15T23:22:40-0800 24970 48.686 -123.4471 -34.7 298 50 130.025 .N611AS
2018-11-15T23:14:00-0800 2018-11-15T23:22:40-0800 20876 48.4852 -123.2588 -23.7 300 49 130.025 .N611AS
2018-11-15T23:16:00-0800 2018-11-15T23:22:40-0800 17209 48.2928 -123.0817 -16.0 (missing) (missing) 130.025 .N611AS